Flight Track Log - Related Links

Times and Time Zones

All times are in EDT time to prevent confusion due to time zone crossing. See the N816BG flight status page for this flight to view local times or setup timezone preferences in your user account.

Time Position Orientation Groundspeed Altitude Reporting Facility
EDT Latitude Longitude Course Direction KTS MPH feet Rate Location/Type
Mon 10:03:08 AM 43.0633 -83.8753 261° West 272 313 8,000  Level Cleveland Center
Mon 10:04:10 AM 43.0528 -83.9825 262° West 273 314 8,000  Level Cleveland Center
Mon 10:05:12 AM 43.0425 -84.0792 262° West 271 312 8,000  Level Cleveland Center
Mon 10:06:00 AM 42.9299 -84.2926 267° West  Level FlightAware Approximate
Mon 10:06:14 AM 43.0317 -84.1839 262° West 268 308 8,000  Level Cleveland Center
Mon 10:07:00 AM 42.9258 -84.3840 266° West  Level FlightAware Approximate
Mon 10:07:16 AM 43.0203 -84.2886 262° West 268 308 8,000  Level Cleveland Center
Mon 10:08:18 AM 43.0089 -84.3931 262° West 267 307 8,000  Level Cleveland Center
Mon 10:09:20 AM 42.9981 -84.4967 262° West 267 307 8,000  Level Cleveland Center
Mon 10:10:22 AM 42.9872 -84.5933 261° West 266 306 8,000  Level Cleveland Center
Mon 10:11:24 AM 42.9750 -84.6983 261° West 269 310 8,000 -194 Level Cleveland Center
Mon 10:12:26 AM 42.9622 -84.8056 261° West 271 312 7,600 -677 Descending Cleveland Center
Mon 10:13:28 AM 42.9389 -84.9042 252° West 265 305 6,600 -774 Descending Cleveland Center
Mon 10:14:30 AM 42.9144 -85.0014 251° West 259 298 6,000 -290 Descending Cleveland Center
Mon 10:15:32 AM 42.8950 -85.0767 251° West 248 285 6,000  Level Cleveland Center
Mon 10:16:34 AM 42.8683 -85.1814 251° West 247 284 6,000  Level Cleveland Center
Mon 10:17:36 AM 42.8464 -85.2667 251° West 246 283 6,000  Level Cleveland Center
Mon 10:19:40 AM 42.8031 -85.4300 250° West 235 270 6,000  Level Cleveland Center
Mon 10:20:42 AM 42.7925 -85.5158 261° West 237 273 6,000 -432 Level Cleveland Center
Mon 10:21:45 AM 42.7914 -85.6039 269° West 236 272 5,100 -1,584 Descending Cleveland Center
Mon 10:22:47 AM 42.7897 -85.7058 269° West 233 268 2,700 -839 Descending Cleveland Center
Mon 10:24:51 AM 42.8536 -85.7347 36° Northeast 194 223 2,500 -65 Descending Cleveland Center
Mon 10:25:53 AM 42.8617 -85.6725 80° East 181 208 2,500 -97 Level Cleveland Center
Mon 10:26:55 AM 42.8697 -85.6039 81° East 172 198 2,300 -194 Descending Cleveland Center

Login

Don't have an account? Register now (free) for customized features, flight alerts, and more!